KALS

San Luis Valley Regional / Bergman Field Airport

Alamosa, Colorado, USA
METAR KALS 221752Z AUTO VRB06KT 10SM CLR 13/M04 A3023 RMK AO2 SLP187 T01281039 10128 21056 58012
Observed Flight Rules
Apr-22 @ 17:52 UTC (31 minutes ago) Visual Flight Rules
Wind Visibility Clouds
Variable at 6 knots 10 miles
  • Clear skies
Temperatures Readings
Current 13°C / 55°F
Dewpoint -4°C / 25°F
Humidity 31%
Altimeter 30.23" Hg
Pressure 1018.7 hPa
Elevation 2299
METAR KALS 221752Z AUTO VRB06KT 10SM CLR 13/M04 A3023 RMK AO2 SLP187 T01281039 10128 21056 58012
Observed Flight Rules
Apr-22 @ 17:52 UTC
(31 minutes ago)
VFR
Wind Visibility
Variable at 6 knots 10 miles
Clouds
  • Clear skies
Temperature Dewpoint
13°C / 55°F -4°C / 25°F
Humidity Altimeter Pressure
31% 30.23" Hg 1018.7 hPa